sensor_id;sensor_type;location;lat;lon;timestamp;P1;durP1;ratioP1;P2;durP2;ratioP2
10725;SDS011;5414;59.782;16.378;2023-07-22T00:00:10;2.83;;;1.67;;
10725;SDS011;5414;59.782;16.378;2023-07-22T00:02:40;2.90;;;1.43;;
10725;SDS011;5414;59.782;16.378;2023-07-22T00:05:06;4.17;;;1.73;;
10725;SDS011;5414;59.782;16.378;2023-07-22T00:07:32;2.53;;;1.37;;
10725;SDS011;5414;59.782;16.378;2023-07-22T00:09:58;4.13;;;1.60;;
10725;SDS011;5414;59.782;16.378;2023-07-22T00:12:25;2.50;;;1.50;;
10725;SDS011;5414;59.782;16.378;2023-07-22T00:14:52;3.97;;;1.60;;
10725;SDS011;5414;59.782;16.378;2023-07-22T00:17:18;2.20;;;1.57;;
10725;SDS011;5414;59.782;16.378;2023-07-22T00:19:46;2.90;;;1.40;;
10725;SDS011;5414;59.782;16.378;2023-07-22T00:22:13;2.07;;;1.57;;
10725;SDS011;5414;59.782;16.378;2023-07-22T00:24:40;3.47;;;1.63;;
10725;SDS011;5414;59.782;16.378;2023-07-22T00:27:06;4.27;;;1.77;;
10725;SDS011;5414;59.782;16.378;2023-07-22T00:29:33;2.10;;;1.53;;
10725;SDS011;5414;59.782;16.378;2023-07-22T00:31:59;2.07;;;1.60;;
10725;SDS011;5414;59.782;16.378;2023-07-22T00:34:25;3.10;;;1.60;;
10725;SDS011;5414;59.782;16.378;2023-07-22T00:36:51;2.03;;;1.60;;
10725;SDS011;5414;59.782;16.378;2023-07-22T00:39:18;3.37;;;1.60;;
10725;SDS011;5414;59.782;16.378;2023-07-22T00:41:45;2.37;;;1.63;;
10725;SDS011;5414;59.782;16.378;2023-07-22T00:44:11;3.77;;;1.80;;
10725;SDS011;5414;59.782;16.378;2023-07-22T00:46:38;4.13;;;1.70;;
10725;SDS011;5414;59.782;16.378;2023-07-22T00:49:05;4.33;;;1.53;;
10725;SDS011;5414;59.782;16.378;2023-07-22T00:51:31;2.40;;;1.67;;
10725;SDS011;5414;59.782;16.378;2023-07-22T00:53:57;2.40;;;1.50;;
10725;SDS011;5414;59.782;16.378;2023-07-22T00:56:23;6.37;;;1.80;;
10725;SDS011;5414;59.782;16.378;2023-07-22T00:58:50;2.47;;;1.40;;
10725;SDS011;5414;59.782;16.378;2023-07-22T01:01:16;3.03;;;1.40;;
10725;SDS011;5414;59.782;16.378;2023-07-22T01:03:42;2.70;;;1.47;;
10725;SDS011;5414;59.782;16.378;2023-07-22T01:06:09;2.47;;;1.57;;
10725;SDS011;5414;59.782;16.378;2023-07-22T01:08:35;3.13;;;1.70;;
10725;SDS011;5414;59.782;16.378;2023-07-22T01:11:01;2.87;;;1.50;;
10725;SDS011;5414;59.782;16.378;2023-07-22T01:13:28;3.63;;;1.50;;
10725;SDS011;5414;59.782;16.378;2023-07-22T01:15:54;3.43;;;1.60;;
10725;SDS011;5414;59.782;16.378;2023-07-22T01:18:20;3.23;;;1.50;;
10725;SDS011;5414;59.782;16.378;2023-07-22T01:20:46;2.80;;;1.63;;
10725;SDS011;5414;59.782;16.378;2023-07-22T01:23:13;4.40;;;1.60;;
10725;SDS011;5414;59.782;16.378;2023-07-22T01:25:39;2.73;;;1.40;;
10725;SDS011;5414;59.782;16.378;2023-07-22T01:28:09;5.80;;;1.60;;
10725;SDS011;5414;59.782;16.378;2023-07-22T01:30:36;4.83;;;1.63;;
10725;SDS011;5414;59.782;16.378;2023-07-22T01:33:02;3.90;;;1.67;;
10725;SDS011;5414;59.782;16.378;2023-07-22T01:35:28;3.63;;;1.47;;
10725;SDS011;5414;59.782;16.378;2023-07-22T01:37:54;3.70;;;1.67;;
10725;SDS011;5414;59.782;16.378;2023-07-22T01:40:20;3.53;;;1.60;;
10725;SDS011;5414;59.782;16.378;2023-07-22T01:42:48;5.00;;;1.80;;
10725;SDS011;5414;59.782;16.378;2023-07-22T01:45:14;3.80;;;1.50;;
10725;SDS011;5414;59.782;16.378;2023-07-22T01:47:40;4.30;;;1.57;;
10725;SDS011;5414;59.782;16.378;2023-07-22T01:50:06;3.27;;;1.57;;
10725;SDS011;5414;59.782;16.378;2023-07-22T01:52:33;2.27;;;1.50;;
10725;SDS011;5414;59.782;16.378;2023-07-22T01:54:59;2.57;;;1.70;;
10725;SDS011;5414;59.782;16.378;2023-07-22T01:57:26;3.73;;;1.60;;
10725;SDS011;5414;59.782;16.378;2023-07-22T01:59:52;4.67;;;1.87;;
10725;SDS011;5414;59.782;16.378;2023-07-22T02:02:18;2.80;;;1.50;;
10725;SDS011;5414;59.782;16.378;2023-07-22T02:04:45;3.27;;;1.80;;
10725;SDS011;5414;59.782;16.378;2023-07-22T02:07:11;3.27;;;1.53;;
10725;SDS011;5414;59.782;16.378;2023-07-22T02:09:37;3.97;;;1.60;;
10725;SDS011;5414;59.782;16.378;2023-07-22T02:12:03;1.80;;;1.53;;
10725;SDS011;5414;59.782;16.378;2023-07-22T02:14:29;3.03;;;1.50;;
10725;SDS011;5414;59.782;16.378;2023-07-22T02:16:55;3.50;;;1.43;;
10725;SDS011;5414;59.782;16.378;2023-07-22T02:19:21;2.80;;;1.30;;
10725;SDS011;5414;59.782;16.378;2023-07-22T02:21:47;3.60;;;1.50;;
10725;SDS011;5414;59.782;16.378;2023-07-22T02:24:14;3.90;;;1.60;;
10725;SDS011;5414;59.782;16.378;2023-07-22T02:26:40;1.87;;;1.50;;
10725;SDS011;5414;59.782;16.378;2023-07-22T02:29:07;2.70;;;1.57;;
10725;SDS011;5414;59.782;16.378;2023-07-22T02:31:33;5.70;;;1.60;;
10725;SDS011;5414;59.782;16.378;2023-07-22T02:33:59;2.53;;;1.23;;
10725;SDS011;5414;59.782;16.378;2023-07-22T02:36:25;2.80;;;1.47;;
10725;SDS011;5414;59.782;16.378;2023-07-22T02:38:51;3.30;;;1.60;;
10725;SDS011;5414;59.782;16.378;2023-07-22T02:41:17;4.00;;;1.50;;
10725;SDS011;5414;59.782;16.378;2023-07-22T02:43:43;1.90;;;1.17;;
10725;SDS011;5414;59.782;16.378;2023-07-22T02:46:09;2.77;;;1.70;;
10725;SDS011;5414;59.782;16.378;2023-07-22T02:48:35;4.17;;;1.47;;
10725;SDS011;5414;59.782;16.378;2023-07-22T02:51:05;1.73;;;1.50;;
10725;SDS011;5414;59.782;16.378;2023-07-22T02:53:32;2.20;;;1.47;;
10725;SDS011;5414;59.782;16.378;2023-07-22T02:55:58;3.63;;;1.57;;
10725;SDS011;5414;59.782;16.378;2023-07-22T02:58:25;6.23;;;1.73;;
10725;SDS011;5414;59.782;16.378;2023-07-22T03:00:51;4.87;;;2.03;;
10725;SDS011;5414;59.782;16.378;2023-07-22T03:03:17;2.60;;;1.50;;
10725;SDS011;5414;59.782;16.378;2023-07-22T03:05:44;4.13;;;1.53;;
10725;SDS011;5414;59.782;16.378;2023-07-22T03:08:10;1.60;;;1.40;;
10725;SDS011;5414;59.782;16.378;2023-07-22T03:10:36;3.27;;;1.60;;
10725;SDS011;5414;59.782;16.378;2023-07-22T03:13:02;5.40;;;1.70;;
10725;SDS011;5414;59.782;16.378;2023-07-22T03:15:28;2.10;;;1.50;;
10725;SDS011;5414;59.782;16.378;2023-07-22T03:17:55;3.40;;;1.90;;
10725;SDS011;5414;59.782;16.378;2023-07-22T03:20:21;4.10;;;1.40;;
10725;SDS011;5414;59.782;16.378;2023-07-22T03:22:49;4.13;;;1.53;;
10725;SDS011;5414;59.782;16.378;2023-07-22T03:25:15;4.33;;;1.60;;
10725;SDS011;5414;59.782;16.378;2023-07-22T03:27:42;3.97;;;1.40;;
10725;SDS011;5414;59.782;16.378;2023-07-22T03:30:09;8.93;;;1.73;;
10725;SDS011;5414;59.782;16.378;2023-07-22T03:32:35;4.10;;;1.50;;
10725;SDS011;5414;59.782;16.378;2023-07-22T03:35:01;4.23;;;1.40;;
10725;SDS011;5414;59.782;16.378;2023-07-22T03:37:29;3.33;;;1.57;;
10725;SDS011;5414;59.782;16.378;2023-07-22T03:39:55;2.73;;;1.40;;
10725;SDS011;5414;59.782;16.378;2023-07-22T03:42:21;5.30;;;1.53;;
10725;SDS011;5414;59.782;16.378;2023-07-22T03:44:47;5.37;;;1.77;;
10725;SDS011;5414;59.782;16.378;2023-07-22T03:47:13;4.33;;;1.90;;
10725;SDS011;5414;59.782;16.378;2023-07-22T03:49:39;3.57;;;1.50;;
10725;SDS011;5414;59.782;16.378;2023-07-22T03:52:05;3.67;;;1.90;;
10725;SDS011;5414;59.782;16.378;2023-07-22T03:54:31;3.60;;;1.40;;
10725;SDS011;5414;59.782;16.378;2023-07-22T03:56:57;3.40;;;1.70;;
10725;SDS011;5414;59.782;16.378;2023-07-22T03:59:23;2.27;;;1.73;;
10725;SDS011;5414;59.782;16.378;2023-07-22T04:01:50;3.57;;;1.80;;
10725;SDS011;5414;59.782;16.378;2023-07-22T04:04:16;4.70;;;2.00;;
10725;SDS011;5414;59.782;16.378;2023-07-22T04:06:42;3.07;;;1.50;;
10725;SDS011;5414;59.782;16.378;2023-07-22T04:09:09;7.70;;;1.83;;
10725;SDS011;5414;59.782;16.378;2023-07-22T04:11:35;5.57;;;1.97;;
10725;SDS011;5414;59.782;16.378;2023-07-22T04:14:02;4.83;;;1.70;;
10725;SDS011;5414;59.782;16.378;2023-07-22T04:16:28;3.03;;;1.50;;
10725;SDS011;5414;59.782;16.378;2023-07-22T04:18:54;2.73;;;1.70;;
10725;SDS011;5414;59.782;16.378;2023-07-22T04:21:20;4.83;;;1.70;;
10725;SDS011;5414;59.782;16.378;2023-07-22T04:23:46;4.47;;;1.60;;
10725;SDS011;5414;59.782;16.378;2023-07-22T04:26:14;4.60;;;1.93;;
10725;SDS011;5414;59.782;16.378;2023-07-22T04:28:41;4.17;;;1.60;;
10725;SDS011;5414;59.782;16.378;2023-07-22T04:31:07;4.73;;;1.80;;
10725;SDS011;5414;59.782;16.378;2023-07-22T04:33:34;2.50;;;1.57;;
10725;SDS011;5414;59.782;16.378;2023-07-22T04:36:00;4.83;;;1.43;;
10725;SDS011;5414;59.782;16.378;2023-07-22T04:38:26;4.37;;;1.40;;
10725;SDS011;5414;59.782;16.378;2023-07-22T04:40:53;4.23;;;1.40;;
10725;SDS011;5414;59.782;16.378;2023-07-22T04:43:19;4.13;;;1.87;;
10725;SDS011;5414;59.782;16.378;2023-07-22T04:45:45;4.67;;;1.60;;
10725;SDS011;5414;59.782;16.378;2023-07-22T04:48:15;5.07;;;1.77;;
10725;SDS011;5414;59.782;16.378;2023-07-22T04:50:42;3.70;;;1.53;;
10725;SDS011;5414;59.782;16.378;2023-07-22T04:53:10;4.07;;;1.43;;
10725;SDS011;5414;59.782;16.378;2023-07-22T04:55:38;4.43;;;1.70;;
10725;SDS011;5414;59.782;16.378;2023-07-22T04:58:04;3.50;;;1.70;;
10725;SDS011;5414;59.782;16.378;2023-07-22T05:00:30;3.57;;;1.50;;
10725;SDS011;5414;59.782;16.378;2023-07-22T05:02:58;4.47;;;1.50;;
10725;SDS011;5414;59.782;16.378;2023-07-22T05:05:24;3.90;;;1.43;;
10725;SDS011;5414;59.782;16.378;2023-07-22T05:07:50;3.60;;;1.43;;
10725;SDS011;5414;59.782;16.378;2023-07-22T05:10:17;3.97;;;1.60;;
10725;SDS011;5414;59.782;16.378;2023-07-22T05:12:44;5.30;;;1.60;;
10725;SDS011;5414;59.782;16.378;2023-07-22T05:15:10;2.47;;;1.40;;
10725;SDS011;5414;59.782;16.378;2023-07-22T05:17:37;5.13;;;1.47;;
10725;SDS011;5414;59.782;16.378;2023-07-22T05:20:03;5.03;;;1.47;;
10725;SDS011;5414;59.782;16.378;2023-07-22T05:22:31;5.70;;;1.43;;
10725;SDS011;5414;59.782;16.378;2023-07-22T05:24:57;3.87;;;1.40;;
10725;SDS011;5414;59.782;16.378;2023-07-22T05:27:23;5.47;;;1.37;;
10725;SDS011;5414;59.782;16.378;2023-07-22T05:29:49;3.70;;;1.17;;
10725;SDS011;5414;59.782;16.378;2023-07-22T05:32:15;4.33;;;1.67;;
10725;SDS011;5414;59.782;16.378;2023-07-22T05:34:41;3.90;;;1.37;;
10725;SDS011;5414;59.782;16.378;2023-07-22T05:37:07;3.07;;;1.20;;
10725;SDS011;5414;59.782;16.378;2023-07-22T05:39:33;3.00;;;1.23;;
10725;SDS011;5414;59.782;16.378;2023-07-22T05:41:59;4.77;;;1.90;;
10725;SDS011;5414;59.782;16.378;2023-07-22T05:44:27;4.30;;;1.53;;
10725;SDS011;5414;59.782;16.378;2023-07-22T05:46:53;2.57;;;1.50;;
10725;SDS011;5414;59.782;16.378;2023-07-22T05:49:20;5.03;;;1.27;;
10725;SDS011;5414;59.782;16.378;2023-07-22T05:51:46;4.67;;;1.30;;
10725;SDS011;5414;59.782;16.378;2023-07-22T05:54:12;2.30;;;1.43;;
10725;SDS011;5414;59.782;16.378;2023-07-22T05:56:38;3.33;;;1.40;;
10725;SDS011;5414;59.782;16.378;2023-07-22T05:59:04;5.60;;;1.30;;
10725;SDS011;5414;59.782;16.378;2023-07-22T06:01:30;3.07;;;1.33;;
10725;SDS011;5414;59.782;16.378;2023-07-22T06:03:56;5.07;;;1.50;;
10725;SDS011;5414;59.782;16.378;2023-07-22T06:06:23;4.43;;;1.43;;
10725;SDS011;5414;59.782;16.378;2023-07-22T06:08:50;5.47;;;1.60;;
10725;SDS011;5414;59.782;16.378;2023-07-22T06:11:16;5.30;;;1.60;;
10725;SDS011;5414;59.782;16.378;2023-07-22T06:13:43;3.67;;;1.50;;
10725;SDS011;5414;59.782;16.378;2023-07-22T06:16:09;2.80;;;1.20;;
10725;SDS011;5414;59.782;16.378;2023-07-22T06:18:35;4.63;;;1.50;;
10725;SDS011;5414;59.782;16.378;2023-07-22T06:21:01;6.20;;;1.80;;
10725;SDS011;5414;59.782;16.378;2023-07-22T06:23:27;5.53;;;1.70;;
10725;SDS011;5414;59.782;16.378;2023-07-22T06:25:53;3.57;;;1.50;;
10725;SDS011;5414;59.782;16.378;2023-07-22T06:28:19;2.80;;;1.30;;
10725;SDS011;5414;59.782;16.378;2023-07-22T06:30:45;3.23;;;1.27;;
10725;SDS011;5414;59.782;16.378;2023-07-22T06:33:11;3.33;;;1.60;;
10725;SDS011;5414;59.782;16.378;2023-07-22T06:35:39;2.53;;;1.23;;
10725;SDS011;5414;59.782;16.378;2023-07-22T06:38:05;5.30;;;1.30;;
10725;SDS011;5414;59.782;16.378;2023-07-22T06:40:31;2.33;;;1.20;;
10725;SDS011;5414;59.782;16.378;2023-07-22T06:42:57;3.20;;;1.30;;
10725;SDS011;5414;59.782;16.378;2023-07-22T06:45:23;3.40;;;1.30;;
10725;SDS011;5414;59.782;16.378;2023-07-22T06:47:50;4.40;;;1.40;;
10725;SDS011;5414;59.782;16.378;2023-07-22T06:50:16;6.30;;;1.73;;
10725;SDS011;5414;59.782;16.378;2023-07-22T06:52:42;4.80;;;1.40;;
10725;SDS011;5414;59.782;16.378;2023-07-22T06:55:08;2.63;;;1.30;;
10725;SDS011;5414;59.782;16.378;2023-07-22T06:57:34;3.37;;;1.30;;
10725;SDS011;5414;59.782;16.378;2023-07-22T07:00:00;4.00;;;1.10;;
10725;SDS011;5414;59.782;16.378;2023-07-22T07:02:26;2.33;;;1.30;;
10725;SDS011;5414;59.782;16.378;2023-07-22T07:04:52;2.90;;;1.30;;
10725;SDS011;5414;59.782;16.378;2023-07-22T07:07:18;3.07;;;1.20;;
10725;SDS011;5414;59.782;16.378;2023-07-22T07:09:44;3.70;;;1.30;;
10725;SDS011;5414;59.782;16.378;2023-07-22T07:12:10;2.50;;;1.20;;
10725;SDS011;5414;59.782;16.378;2023-07-22T07:14:36;4.67;;;1.60;;
10725;SDS011;5414;59.782;16.378;2023-07-22T07:17:02;3.10;;;1.30;;
10725;SDS011;5414;59.782;16.378;2023-07-22T07:19:29;4.67;;;1.60;;
10725;SDS011;5414;59.782;16.378;2023-07-22T07:21:55;3.50;;;1.50;;
10725;SDS011;5414;59.782;16.378;2023-07-22T07:24:21;3.87;;;1.60;;
10725;SDS011;5414;59.782;16.378;2023-07-22T07:26:47;2.07;;;1.40;;
10725;SDS011;5414;59.782;16.378;2023-07-22T07:29:14;2.37;;;1.37;;
10725;SDS011;5414;59.782;16.378;2023-07-22T07:31:40;4.67;;;1.50;;
10725;SDS011;5414;59.782;16.378;2023-07-22T07:34:06;3.43;;;1.30;;
10725;SDS011;5414;59.782;16.378;2023-07-22T07:36:32;3.53;;;1.23;;
10725;SDS011;5414;59.782;16.378;2023-07-22T07:38:59;3.00;;;1.17;;
10725;SDS011;5414;59.782;16.378;2023-07-22T07:41:25;4.43;;;1.50;;
10725;SDS011;5414;59.782;16.378;2023-07-22T07:43:51;3.10;;;1.40;;
10725;SDS011;5414;59.782;16.378;2023-07-22T07:46:21;4.47;;;1.53;;
10725;SDS011;5414;59.782;16.378;2023-07-22T07:48:48;4.07;;;1.43;;
10725;SDS011;5414;59.782;16.378;2023-07-22T07:51:15;3.87;;;1.37;;
10725;SDS011;5414;59.782;16.378;2023-07-22T07:53:41;4.17;;;1.50;;
10725;SDS011;5414;59.782;16.378;2023-07-22T07:56:09;3.70;;;1.30;;
10725;SDS011;5414;59.782;16.378;2023-07-22T07:58:35;4.90;;;1.80;;
10725;SDS011;5414;59.782;16.378;2023-07-22T08:01:01;2.57;;;1.20;;
10725;SDS011;5414;59.782;16.378;2023-07-22T08:03:28;4.70;;;1.20;;
10725;SDS011;5414;59.782;16.378;2023-07-22T08:05:54;2.33;;;1.13;;
10725;SDS011;5414;59.782;16.378;2023-07-22T08:08:21;3.87;;;1.50;;
10725;SDS011;5414;59.782;16.378;2023-07-22T08:10:47;3.80;;;1.27;;
10725;SDS011;5414;59.782;16.378;2023-07-22T08:13:13;3.57;;;1.50;;
10725;SDS011;5414;59.782;16.378;2023-07-22T08:15:39;2.37;;;1.40;;
10725;SDS011;5414;59.782;16.378;2023-07-22T08:18:06;4.03;;;1.13;;
10725;SDS011;5414;59.782;16.378;2023-07-22T08:20:32;4.00;;;1.33;;
10725;SDS011;5414;59.782;16.378;2023-07-22T08:22:59;2.97;;;1.10;;
10725;SDS011;5414;59.782;16.378;2023-07-22T08:25:25;3.30;;;1.03;;
10725;SDS011;5414;59.782;16.378;2023-07-22T08:27:52;4.50;;;1.20;;
10725;SDS011;5414;59.782;16.378;2023-07-22T08:30:18;1.90;;;1.20;;
10725;SDS011;5414;59.782;16.378;2023-07-22T08:32:44;3.47;;;1.20;;
10725;SDS011;5414;59.782;16.378;2023-07-22T08:35:11;2.33;;;1.07;;
10725;SDS011;5414;59.782;16.378;2023-07-22T08:37:37;2.80;;;1.27;;
10725;SDS011;5414;59.782;16.378;2023-07-22T08:40:03;1.83;;;1.20;;
10725;SDS011;5414;59.782;16.378;2023-07-22T08:42:30;2.07;;;1.00;;
10725;SDS011;5414;59.782;16.378;2023-07-22T08:44:57;3.23;;;1.20;;
10725;SDS011;5414;59.782;16.378;2023-07-22T08:47:26;2.77;;;1.20;;
10725;SDS011;5414;59.782;16.378;2023-07-22T08:49:55;2.50;;;1.20;;
10725;SDS011;5414;59.782;16.378;2023-07-22T08:52:23;3.60;;;1.30;;
10725;SDS011;5414;59.782;16.378;2023-07-22T08:54:50;2.50;;;1.03;;
10725;SDS011;5414;59.782;16.378;2023-07-22T08:57:17;1.83;;;1.00;;
10725;SDS011;5414;59.782;16.378;2023-07-22T08:59:43;4.10;;;1.20;;
10725;SDS011;5414;59.782;16.378;2023-07-22T09:02:12;1.60;;;1.00;;
10725;SDS011;5414;59.782;16.378;2023-07-22T09:04:39;2.10;;;0.90;;
10725;SDS011;5414;59.782;16.378;2023-07-22T09:07:09;3.53;;;1.20;;
10725;SDS011;5414;59.782;16.378;2023-07-22T09:09:36;3.33;;;1.20;;
10725;SDS011;5414;59.782;16.378;2023-07-22T09:12:03;1.87;;;1.20;;
10725;SDS011;5414;59.782;16.378;2023-07-22T09:14:30;2.73;;;1.20;;
10725;SDS011;5414;59.782;16.378;2023-07-22T09:16:57;2.53;;;1.27;;
10725;SDS011;5414;59.782;16.378;2023-07-22T09:19:23;1.93;;;1.10;;
10725;SDS011;5414;59.782;16.378;2023-07-22T09:21:50;2.23;;;1.17;;
10725;SDS011;5414;59.782;16.378;2023-07-22T09:24:20;2.53;;;1.30;;
10725;SDS011;5414;59.782;16.378;2023-07-22T09:26:47;3.27;;;1.20;;
10725;SDS011;5414;59.782;16.378;2023-07-22T09:29:13;1.83;;;1.03;;
10725;SDS011;5414;59.782;16.378;2023-07-22T09:31:52;2.40;;;1.10;;
10725;SDS011;5414;59.782;16.378;2023-07-22T09:34:18;1.57;;;1.00;;
10725;SDS011;5414;59.782;16.378;2023-07-22T09:36:51;3.60;;;1.17;;
10725;SDS011;5414;59.782;16.378;2023-07-22T09:39:17;3.00;;;1.20;;
10725;SDS011;5414;59.782;16.378;2023-07-22T09:41:43;1.70;;;1.30;;
10725;SDS011;5414;59.782;16.378;2023-07-22T09:44:10;2.45;;;1.15;;
10725;SDS011;5414;59.782;16.378;2023-07-22T09:46:40;3.13;;;1.10;;
10725;SDS011;5414;59.782;16.378;2023-07-22T09:49:09;2.47;;;1.20;;
10725;SDS011;5414;59.782;16.378;2023-07-22T09:51:36;1.43;;;0.93;;
10725;SDS011;5414;59.782;16.378;2023-07-22T09:54:03;2.60;;;1.20;;
10725;SDS011;5414;59.782;16.378;2023-07-22T09:56:29;1.73;;;1.10;;
10725;SDS011;5414;59.782;16.378;2023-07-22T09:58:56;1.97;;;1.20;;
10725;SDS011;5414;59.782;16.378;2023-07-22T10:01:25;3.57;;;1.20;;
10725;SDS011;5414;59.782;16.378;2023-07-22T10:03:53;1.83;;;1.00;;
10725;SDS011;5414;59.782;16.378;2023-07-22T10:06:26;3.23;;;1.10;;
10725;SDS011;5414;59.782;16.378;2023-07-22T10:08:52;2.60;;;1.17;;
10725;SDS011;5414;59.782;16.378;2023-07-22T10:11:19;2.60;;;1.07;;
10725;SDS011;5414;59.782;16.378;2023-07-22T10:13:45;1.67;;;1.00;;
10725;SDS011;5414;59.782;16.378;2023-07-22T10:16:11;5.97;;;1.20;;
10725;SDS011;5414;59.782;16.378;2023-07-22T10:18:38;2.77;;;1.33;;
10725;SDS011;5414;59.782;16.378;2023-07-22T10:21:07;3.23;;;1.00;;
10725;SDS011;5414;59.782;16.378;2023-07-22T10:23:33;1.93;;;1.03;;
10725;SDS011;5414;59.782;16.378;2023-07-22T10:25:59;2.72;;;0.88;;
10725;SDS011;5414;59.782;16.378;2023-07-22T10:28:25;2.47;;;1.20;;
10725;SDS011;5414;59.782;16.378;2023-07-22T10:30:52;2.30;;;1.10;;
10725;SDS011;5414;59.782;16.378;2023-07-22T10:33:18;2.10;;;1.03;;
10725;SDS011;5414;59.782;16.378;2023-07-22T10:36:00;1.73;;;1.03;;
10725;SDS011;5414;59.782;16.378;2023-07-22T10:38:27;2.00;;;1.10;;
10725;SDS011;5414;59.782;16.378;2023-07-22T10:40:53;1.43;;;0.90;;
10725;SDS011;5414;59.782;16.378;2023-07-22T10:43:32;2.03;;;1.10;;
10725;SDS011;5414;59.782;16.378;2023-07-22T10:46:11;1.70;;;1.00;;
10725;SDS011;5414;59.782;16.378;2023-07-22T10:48:39;2.03;;;1.10;;
10725;SDS011;5414;59.782;16.378;2023-07-22T10:51:07;2.30;;;1.10;;
10725;SDS011;5414;59.782;16.378;2023-07-22T10:53:38;3.13;;;1.00;;
10725;SDS011;5414;59.782;16.378;2023-07-22T11:01:44;4.60;;;1.00;;
10725;SDS011;5414;59.782;16.378;2023-07-22T11:06:36;1.40;;;1.10;;
10725;SDS011;5414;59.782;16.378;2023-07-22T11:09:02;2.87;;;0.77;;
10725;SDS011;5414;59.782;16.378;2023-07-22T11:11:39;1.97;;;1.00;;
10725;SDS011;5414;59.782;16.378;2023-07-22T11:16:45;2.30;;;0.93;;
10725;SDS011;5414;59.782;16.378;2023-07-22T11:19:15;1.73;;;1.03;;
10725;SDS011;5414;59.782;16.378;2023-07-22T11:21:42;2.80;;;0.90;;
10725;SDS011;5414;59.782;16.378;2023-07-22T11:24:08;1.70;;;1.20;;
10725;SDS011;5414;59.782;16.378;2023-07-22T11:26:34;2.50;;;1.20;;
10725;SDS011;5414;59.782;16.378;2023-07-22T11:29:00;1.40;;;1.00;;
10725;SDS011;5414;59.782;16.378;2023-07-22T11:31:33;2.17;;;1.10;;
10725;SDS011;5414;59.782;16.378;2023-07-22T11:34:01;3.40;;;1.00;;
10725;SDS011;5414;59.782;16.378;2023-07-22T11:36:27;2.50;;;1.10;;
10725;SDS011;5414;59.782;16.378;2023-07-22T11:39:16;1.77;;;1.10;;
10725;SDS011;5414;59.782;16.378;2023-07-22T11:41:41;1.77;;;1.17;;
10725;SDS011;5414;59.782;16.378;2023-07-22T11:44:08;1.60;;;0.90;;
10725;SDS011;5414;59.782;16.378;2023-07-22T11:46:35;2.93;;;1.13;;
10725;SDS011;5414;59.782;16.378;2023-07-22T11:49:02;2.10;;;1.30;;
10725;SDS011;5414;59.782;16.378;2023-07-22T11:51:28;2.10;;;1.20;;
10725;SDS011;5414;59.782;16.378;2023-07-22T11:53:56;2.17;;;1.33;;
10725;SDS011;5414;59.782;16.378;2023-07-22T11:56:22;2.13;;;1.30;;
10725;SDS011;5414;59.782;16.378;2023-07-22T11:58:50;2.37;;;1.20;;
10725;SDS011;5414;59.782;16.378;2023-07-22T12:01:17;3.10;;;1.50;;
10725;SDS011;5414;59.782;16.378;2023-07-22T12:03:43;1.50;;;1.30;;
10725;SDS011;5414;59.782;16.378;2023-07-22T12:06:09;3.33;;;1.10;;
10725;SDS011;5414;59.782;16.378;2023-07-22T12:08:36;2.50;;;1.20;;
10725;SDS011;5414;59.782;16.378;2023-07-22T12:11:02;3.07;;;1.20;;
10725;SDS011;5414;59.782;16.378;2023-07-22T12:13:29;1.60;;;1.20;;
10725;SDS011;5414;59.782;16.378;2023-07-22T12:16:01;1.73;;;1.30;;
10725;SDS011;5414;59.782;16.378;2023-07-22T12:18:28;1.30;;;1.20;;
10725;SDS011;5414;59.782;16.378;2023-07-22T12:20:56;1.70;;;1.20;;
10725;SDS011;5414;59.782;16.378;2023-07-22T12:23:25;1.40;;;1.20;;
10725;SDS011;5414;59.782;16.378;2023-07-22T12:25:51;2.33;;;1.10;;
10725;SDS011;5414;59.782;16.378;2023-07-22T12:28:17;1.60;;;1.10;;
10725;SDS011;5414;59.782;16.378;2023-07-22T12:30:43;1.67;;;1.57;;
10725;SDS011;5414;59.782;16.378;2023-07-22T12:33:09;1.73;;;1.53;;
10725;SDS011;5414;59.782;16.378;2023-07-22T12:35:35;2.00;;;1.30;;
10725;SDS011;5414;59.782;16.378;2023-07-22T12:38:01;1.30;;;1.20;;
10725;SDS011;5414;59.782;16.378;2023-07-22T12:40:27;1.80;;;1.23;;
10725;SDS011;5414;59.782;16.378;2023-07-22T12:42:53;2.30;;;1.30;;
10725;SDS011;5414;59.782;16.378;2023-07-22T12:45:19;1.40;;;1.10;;
10725;SDS011;5414;59.782;16.378;2023-07-22T12:47:45;1.47;;;1.30;;
10725;SDS011;5414;59.782;16.378;2023-07-22T12:50:12;3.50;;;1.43;;
10725;SDS011;5414;59.782;16.378;2023-07-22T12:52:38;1.97;;;1.10;;
10725;SDS011;5414;59.782;16.378;2023-07-22T12:55:04;1.47;;;1.07;;
10725;SDS011;5414;59.782;16.378;2023-07-22T12:57:31;1.70;;;1.30;;
10725;SDS011;5414;59.782;16.378;2023-07-22T12:59:57;1.90;;;1.13;;
10725;SDS011;5414;59.782;16.378;2023-07-22T13:02:23;1.50;;;1.00;;
10725;SDS011;5414;59.782;16.378;2023-07-22T13:04:50;2.20;;;1.30;;
10725;SDS011;5414;59.782;16.378;2023-07-22T13:07:16;2.40;;;1.10;;
10725;SDS011;5414;59.782;16.378;2023-07-22T13:09:42;1.97;;;1.10;;
10725;SDS011;5414;59.782;16.378;2023-07-22T13:12:10;1.20;;;1.10;;
10725;SDS011;5414;59.782;16.378;2023-07-22T13:14:37;1.60;;;1.20;;
10725;SDS011;5414;59.782;16.378;2023-07-22T13:17:03;1.10;;;1.00;;
10725;SDS011;5414;59.782;16.378;2023-07-22T13:19:29;1.53;;;1.20;;
10725;SDS011;5414;59.782;16.378;2023-07-22T13:21:55;1.77;;;1.30;;
10725;SDS011;5414;59.782;16.378;2023-07-22T13:24:21;2.50;;;1.43;;
10725;SDS011;5414;59.782;16.378;2023-07-22T13:26:47;1.33;;;1.00;;
10725;SDS011;5414;59.782;16.378;2023-07-22T13:29:13;1.50;;;1.10;;
10725;SDS011;5414;59.782;16.378;2023-07-22T13:31:39;1.47;;;1.00;;
10725;SDS011;5414;59.782;16.378;2023-07-22T13:34:05;2.80;;;1.30;;
10725;SDS011;5414;59.782;16.378;2023-07-22T13:36:31;1.30;;;1.20;;
10725;SDS011;5414;59.782;16.378;2023-07-22T13:38:57;1.57;;;1.30;;
10725;SDS011;5414;59.782;16.378;2023-07-22T13:41:23;1.50;;;1.03;;
10725;SDS011;5414;59.782;16.378;2023-07-22T13:43:50;2.37;;;1.23;;
10725;SDS011;5414;59.782;16.378;2023-07-22T13:46:16;1.47;;;1.07;;
10725;SDS011;5414;59.782;16.378;2023-07-22T13:48:42;1.20;;;1.10;;
10725;SDS011;5414;59.782;16.378;2023-07-22T13:51:08;1.53;;;1.17;;
10725;SDS011;5414;59.782;16.378;2023-07-22T13:53:34;2.00;;;1.30;;
10725;SDS011;5414;59.782;16.378;2023-07-22T13:56:02;1.10;;;1.00;;
10725;SDS011;5414;59.782;16.378;2023-07-22T13:58:28;1.83;;;1.00;;
10725;SDS011;5414;59.782;16.378;2023-07-22T14:00:54;2.13;;;1.10;;
10725;SDS011;5414;59.782;16.378;2023-07-22T14:03:20;2.07;;;1.10;;
10725;SDS011;5414;59.782;16.378;2023-07-22T14:05:46;1.20;;;1.00;;
10725;SDS011;5414;59.782;16.378;2023-07-22T14:08:12;1.50;;;0.90;;
10725;SDS011;5414;59.782;16.378;2023-07-22T14:10:39;3.00;;;1.30;;
10725;SDS011;5414;59.782;16.378;2023-07-22T14:13:05;1.57;;;1.00;;
10725;SDS011;5414;59.782;16.378;2023-07-22T14:15:31;1.80;;;1.10;;
10725;SDS011;5414;59.782;16.378;2023-07-22T14:17:57;1.47;;;1.20;;
10725;SDS011;5414;59.782;16.378;2023-07-22T14:20:23;1.20;;;1.10;;
10725;SDS011;5414;59.782;16.378;2023-07-22T14:22:49;1.93;;;1.10;;
10725;SDS011;5414;59.782;16.378;2023-07-22T14:25:16;1.03;;;0.93;;
10725;SDS011;5414;59.782;16.378;2023-07-22T14:27:42;1.70;;;1.13;;
10725;SDS011;5414;59.782;16.378;2023-07-22T14:30:08;1.37;;;1.00;;
10725;SDS011;5414;59.782;16.378;2023-07-22T14:32:34;1.17;;;1.10;;
10725;SDS011;5414;59.782;16.378;2023-07-22T14:35:01;1.63;;;1.03;;
10725;SDS011;5414;59.782;16.378;2023-07-22T14:37:28;1.40;;;1.10;;
10725;SDS011;5414;59.782;16.378;2023-07-22T14:39:54;1.97;;;1.27;;
10725;SDS011;5414;59.782;16.378;2023-07-22T14:42:25;2.27;;;1.20;;
10725;SDS011;5414;59.782;16.378;2023-07-22T14:44:51;1.60;;;1.10;;
10725;SDS011;5414;59.782;16.378;2023-07-22T14:47:17;2.23;;;1.20;;
10725;SDS011;5414;59.782;16.378;2023-07-22T14:49:44;2.33;;;1.20;;
10725;SDS011;5414;59.782;16.378;2023-07-22T14:52:10;1.90;;;1.10;;
10725;SDS011;5414;59.782;16.378;2023-07-22T14:54:36;1.20;;;1.00;;